sensor_id;sensor_type;location;lat;lon;timestamp;temperature;humidity
45409;DHT22;31162;51.076;3.784;2022-08-11T00:00:13;21.40;99.90
45409;DHT22;31162;51.076;3.784;2022-08-11T00:02:47;21.40;99.90
45409;DHT22;31162;51.076;3.784;2022-08-11T00:05:17;21.30;99.90
45409;DHT22;31162;51.076;3.784;2022-08-11T00:07:53;21.30;99.90
45409;DHT22;31162;51.076;3.784;2022-08-11T00:10:24;21.20;99.90
45409;DHT22;31162;51.076;3.784;2022-08-11T00:12:54;21.20;99.90
45409;DHT22;31162;51.076;3.784;2022-08-11T00:15:22;21.20;99.90
45409;DHT22;31162;51.076;3.784;2022-08-11T00:17:50;21.10;99.90
45409;DHT22;31162;51.076;3.784;2022-08-11T00:20:20;21.00;99.90
45409;DHT22;31162;51.076;3.784;2022-08-11T00:22:47;20.90;99.90
45409;DHT22;31162;51.076;3.784;2022-08-11T00:25:19;20.90;99.90
45409;DHT22;31162;51.076;3.784;2022-08-11T00:27:46;20.80;99.90
45409;DHT22;31162;51.076;3.784;2022-08-11T00:30:14;20.70;99.90
45409;DHT22;31162;51.076;3.784;2022-08-11T00:32:42;20.70;99.90
45409;DHT22;31162;51.076;3.784;2022-08-11T00:35:12;20.80;99.90
45409;DHT22;31162;51.076;3.784;2022-08-11T00:37:38;20.80;99.90
45409;DHT22;31162;51.076;3.784;2022-08-11T00:40:17;20.80;99.90
45409;DHT22;31162;51.076;3.784;2022-08-11T00:54:59;20.90;99.90
45409;DHT22;31162;51.076;3.784;2022-08-11T01:00:19;20.60;99.90
45409;DHT22;31162;51.076;3.784;2022-08-11T01:03:17;20.50;99.90
45409;DHT22;31162;51.076;3.784;2022-08-11T01:19:54;20.30;99.90
45409;DHT22;31162;51.076;3.784;2022-08-11T01:31:36;20.20;99.90
45409;DHT22;31162;51.076;3.784;2022-08-11T01:41:03;20.00;99.90
45409;DHT22;31162;51.076;3.784;2022-08-11T01:43:45;19.90;99.90
45409;DHT22;31162;51.076;3.784;2022-08-11T01:49:32;20.00;99.90
45409;DHT22;31162;51.076;3.784;2022-08-11T01:54:45;19.90;99.90
45409;DHT22;31162;51.076;3.784;2022-08-11T01:57:41;19.90;99.90
45409;DHT22;31162;51.076;3.784;2022-08-11T02:00:14;19.80;99.90
45409;DHT22;31162;51.076;3.784;2022-08-11T02:03:02;19.80;99.90
45409;DHT22;31162;51.076;3.784;2022-08-11T02:08:48;19.70;99.90
45409;DHT22;31162;51.076;3.784;2022-08-11T02:11:27;19.70;99.90
45409;DHT22;31162;51.076;3.784;2022-08-11T02:25:30;19.60;99.90
45409;DHT22;31162;51.076;3.784;2022-08-11T02:28:12;19.50;99.90
45409;DHT22;31162;51.076;3.784;2022-08-11T02:31:11;19.50;99.90
45409;DHT22;31162;51.076;3.784;2022-08-11T02:37:19;19.30;99.90
45409;DHT22;31162;51.076;3.784;2022-08-11T02:42:30;19.40;99.90
45409;DHT22;31162;51.076;3.784;2022-08-11T02:47:38;19.20;99.90
45409;DHT22;31162;51.076;3.784;2022-08-11T02:50:19;19.20;99.90
45409;DHT22;31162;51.076;3.784;2022-08-11T02:53:00;19.20;99.90
45409;DHT22;31162;51.076;3.784;2022-08-11T03:00:56;19.00;99.90
45409;DHT22;31162;51.076;3.784;2022-08-11T03:03:59;19.00;99.90
45409;DHT22;31162;51.076;3.784;2022-08-11T03:06:26;19.10;99.90
45409;DHT22;31162;51.076;3.784;2022-08-11T03:09:04;19.00;99.90
45409;DHT22;31162;51.076;3.784;2022-08-11T03:18:24;19.00;99.90
45409;DHT22;31162;51.076;3.784;2022-08-11T03:21:11;18.90;99.90
45409;DHT22;31162;51.076;3.784;2022-08-11T03:24:00;18.90;99.90
45409;DHT22;31162;51.076;3.784;2022-08-11T03:27:07;19.00;99.90
45409;DHT22;31162;51.076;3.784;2022-08-11T03:29:40;18.90;99.90
45409;DHT22;31162;51.076;3.784;2022-08-11T03:35:36;18.70;99.90
45409;DHT22;31162;51.076;3.784;2022-08-11T03:38:11;18.70;99.90
45409;DHT22;31162;51.076;3.784;2022-08-11T03:41:06;18.70;99.90
45409;DHT22;31162;51.076;3.784;2022-08-11T03:52:50;18.50;99.90
45409;DHT22;31162;51.076;3.784;2022-08-11T04:06:21;18.30;99.90
45409;DHT22;31162;51.076;3.784;2022-08-11T04:21:24;18.20;99.90
45409;DHT22;31162;51.076;3.784;2022-08-11T04:40:34;18.20;99.90
45409;DHT22;31162;51.076;3.784;2022-08-11T04:46:31;18.30;99.90
45409;DHT22;31162;51.076;3.784;2022-08-11T04:55:41;18.40;99.90
45409;DHT22;31162;51.076;3.784;2022-08-11T04:58:54;18.40;99.90
45409;DHT22;31162;51.076;3.784;2022-08-11T05:13:05;18.60;99.90
45409;DHT22;31162;51.076;3.784;2022-08-11T05:15:55;18.70;99.90
45409;DHT22;31162;51.076;3.784;2022-08-11T05:18:51;18.70;99.90
45409;DHT22;31162;51.076;3.784;2022-08-11T05:21:39;18.80;99.90
45409;DHT22;31162;51.076;3.784;2022-08-11T05:24:30;18.80;99.90
45409;DHT22;31162;51.076;3.784;2022-08-11T05:27:18;18.80;99.90
45409;DHT22;31162;51.076;3.784;2022-08-11T05:30:07;18.90;99.90
45409;DHT22;31162;51.076;3.784;2022-08-11T05:32:58;18.90;99.90
45409;DHT22;31162;51.076;3.784;2022-08-11T05:35:45;19.00;99.90
45409;DHT22;31162;51.076;3.784;2022-08-11T05:38:19;19.10;99.90
45409;DHT22;31162;51.076;3.784;2022-08-11T05:41:05;19.10;99.90
45409;DHT22;31162;51.076;3.784;2022-08-11T05:43:50;19.20;99.90
45409;DHT22;31162;51.076;3.784;2022-08-11T05:46:40;19.20;99.90
45409;DHT22;31162;51.076;3.784;2022-08-11T05:49:28;19.70;99.90
45409;DHT22;31162;51.076;3.784;2022-08-11T05:52:21;20.60;99.90
45409;DHT22;31162;51.076;3.784;2022-08-11T05:55:06;20.50;99.90
45409;DHT22;31162;51.076;3.784;2022-08-11T05:58:10;20.40;99.90
45409;DHT22;31162;51.076;3.784;2022-08-11T06:00:42;20.20;99.90
45409;DHT22;31162;51.076;3.784;2022-08-11T06:03:11;20.20;99.90
45409;DHT22;31162;51.076;3.784;2022-08-11T06:05:45;20.20;99.90
45409;DHT22;31162;51.076;3.784;2022-08-11T06:08:11;20.70;99.90
45409;DHT22;31162;51.076;3.784;2022-08-11T06:10:40;21.60;99.90
45409;DHT22;31162;51.076;3.784;2022-08-11T06:13:08;22.50;99.90
45409;DHT22;31162;51.076;3.784;2022-08-11T06:15:44;23.40;99.90
45409;DHT22;31162;51.076;3.784;2022-08-11T06:18:11;23.40;99.90
45409;DHT22;31162;51.076;3.784;2022-08-11T06:20:51;23.00;99.90
45409;DHT22;31162;51.076;3.784;2022-08-11T06:23:20;22.80;99.90
45409;DHT22;31162;51.076;3.784;2022-08-11T06:25:51;24.90;99.90
45409;DHT22;31162;51.076;3.784;2022-08-11T06:28:17;27.80;96.00
45409;DHT22;31162;51.076;3.784;2022-08-11T06:30:45;29.80;91.70
45409;DHT22;31162;51.076;3.784;2022-08-11T06:33:18;29.90;89.50
45409;DHT22;31162;51.076;3.784;2022-08-11T06:41:03;30.00;88.70
45409;DHT22;31162;51.076;3.784;2022-08-11T06:46:29;33.40;80.00
45409;DHT22;31162;51.076;3.784;2022-08-11T06:48:56;35.70;75.70
45409;DHT22;31162;51.076;3.784;2022-08-11T06:51:23;36.50;71.40
45409;DHT22;31162;51.076;3.784;2022-08-11T06:53:58;37.30;69.70
45409;DHT22;31162;51.076;3.784;2022-08-11T06:56:51;37.90;68.20
45409;DHT22;31162;51.076;3.784;2022-08-11T06:59:35;38.90;66.30
45409;DHT22;31162;51.076;3.784;2022-08-11T07:02:27;40.10;64.80
45409;DHT22;31162;51.076;3.784;2022-08-11T07:05:28;40.60;63.20
45409;DHT22;31162;51.076;3.784;2022-08-11T07:11:12;41.00;62.00
45409;DHT22;31162;51.076;3.784;2022-08-11T07:14:01;42.10;60.80
45409;DHT22;31162;51.076;3.784;2022-08-11T07:16:49;42.90;59.80
45409;DHT22;31162;51.076;3.784;2022-08-11T07:19:24;40.90;59.40
45409;DHT22;31162;51.076;3.784;2022-08-11T07:22:11;39.70;60.50
45409;DHT22;31162;51.076;3.784;2022-08-11T07:25:01;38.70;61.60
45409;DHT22;31162;51.076;3.784;2022-08-11T07:27:50;40.00;60.30
45409;DHT22;31162;51.076;3.784;2022-08-11T07:30:40;40.00;60.80
45409;DHT22;31162;51.076;3.784;2022-08-11T07:33:06;41.80;58.90
45409;DHT22;31162;51.076;3.784;2022-08-11T07:35:44;42.40;58.20
45409;DHT22;31162;51.076;3.784;2022-08-11T07:38:28;42.50;57.80
45409;DHT22;31162;51.076;3.784;2022-08-11T07:41:15;41.70;58.60
45409;DHT22;31162;51.076;3.784;2022-08-11T07:43:42;42.70;57.20
45409;DHT22;31162;51.076;3.784;2022-08-11T07:46:10;43.30;57.00
45409;DHT22;31162;51.076;3.784;2022-08-11T07:48:55;43.90;56.90
45409;DHT22;31162;51.076;3.784;2022-08-11T07:51:41;44.10;55.60
45409;DHT22;31162;51.076;3.784;2022-08-11T07:54:27;42.90;56.00
45409;DHT22;31162;51.076;3.784;2022-08-11T07:56:53;42.50;55.80
45409;DHT22;31162;51.076;3.784;2022-08-11T07:59:19;43.40;55.20
45409;DHT22;31162;51.076;3.784;2022-08-11T08:02:04;45.10;55.20
45409;DHT22;31162;51.076;3.784;2022-08-11T08:04:49;48.80;52.70
45409;DHT22;31162;51.076;3.784;2022-08-11T08:07:35;49.20;51.20
45409;DHT22;31162;51.076;3.784;2022-08-11T08:10:21;46.80;52.20
45409;DHT22;31162;51.076;3.784;2022-08-11T08:13:06;47.00;52.80
45409;DHT22;31162;51.076;3.784;2022-08-11T08:15:52;45.80;52.50
45409;DHT22;31162;51.076;3.784;2022-08-11T08:18:37;43.70;52.70
45409;DHT22;31162;51.076;3.784;2022-08-11T08:21:04;41.10;54.40
45409;DHT22;31162;51.076;3.784;2022-08-11T08:23:38;39.70;55.50
45409;DHT22;31162;51.076;3.784;2022-08-11T08:26:10;38.90;56.70
45409;DHT22;31162;51.076;3.784;2022-08-11T08:28:56;40.50;55.40
45409;DHT22;31162;51.076;3.784;2022-08-11T08:31:43;42.10;53.60
45409;DHT22;31162;51.076;3.784;2022-08-11T08:34:11;40.20;54.10
45409;DHT22;31162;51.076;3.784;2022-08-11T08:36:41;39.20;55.70
45409;DHT22;31162;51.076;3.784;2022-08-11T08:39:07;40.30;55.10
45409;DHT22;31162;51.076;3.784;2022-08-11T08:41:35;42.10;53.60
45409;DHT22;31162;51.076;3.784;2022-08-11T08:44:07;43.50;53.50
45409;DHT22;31162;51.076;3.784;2022-08-11T08:46:36;45.00;53.10
45409;DHT22;31162;51.076;3.784;2022-08-11T08:49:04;46.40;52.30
45409;DHT22;31162;51.076;3.784;2022-08-11T08:51:34;46.40;51.30
45409;DHT22;31162;51.076;3.784;2022-08-11T08:54:11;46.30;51.00
45409;DHT22;31162;51.076;3.784;2022-08-11T08:56:40;46.00;50.30
45409;DHT22;31162;51.076;3.784;2022-08-11T08:59:09;45.10;50.00
45409;DHT22;31162;51.076;3.784;2022-08-11T09:02:13;43.20;51.80
45409;DHT22;31162;51.076;3.784;2022-08-11T09:04:33;44.00;51.90
45409;DHT22;31162;51.076;3.784;2022-08-11T09:07:06;45.50;50.40
45409;DHT22;31162;51.076;3.784;2022-08-11T09:09:32;45.90;50.20
45409;DHT22;31162;51.076;3.784;2022-08-11T09:11:59;45.10;50.30
45409;DHT22;31162;51.076;3.784;2022-08-11T09:14:34;42.90;51.80
45409;DHT22;31162;51.076;3.784;2022-08-11T09:17:19;44.00;52.20
45409;DHT22;31162;51.076;3.784;2022-08-11T09:19:46;44.90;51.20
45409;DHT22;31162;51.076;3.784;2022-08-11T09:22:18;46.10;49.60
45409;DHT22;31162;51.076;3.784;2022-08-11T09:25:04;41.60;51.60
45409;DHT22;31162;51.076;3.784;2022-08-11T09:27:49;40.30;53.70
45409;DHT22;31162;51.076;3.784;2022-08-11T09:30:18;40.80;53.90
45409;DHT22;31162;51.076;3.784;2022-08-11T09:32:44;43.10;51.90
45409;DHT22;31162;51.076;3.784;2022-08-11T09:35:11;42.40;51.60
45409;DHT22;31162;51.076;3.784;2022-08-11T09:37:36;41.90;52.30
45409;DHT22;31162;51.076;3.784;2022-08-11T09:40:50;43.50;52.40
45409;DHT22;31162;51.076;3.784;2022-08-11T09:43:18;42.30;51.40
45409;DHT22;31162;51.076;3.784;2022-08-11T09:46:04;43.00;51.60
45409;DHT22;31162;51.076;3.784;2022-08-11T09:48:36;41.50;51.70
45409;DHT22;31162;51.076;3.784;2022-08-11T09:51:03;41.50;52.00
45409;DHT22;31162;51.076;3.784;2022-08-11T09:53:36;40.50;52.40
45409;DHT22;31162;51.076;3.784;2022-08-11T09:56:02;40.90;52.00
45409;DHT22;31162;51.076;3.784;2022-08-11T09:58:51;39.90;52.90
45409;DHT22;31162;51.076;3.784;2022-08-11T10:01:21;40.10;52.30
45409;DHT22;31162;51.076;3.784;2022-08-11T10:04:04;40.40;52.70
45409;DHT22;31162;51.076;3.784;2022-08-11T10:06:31;42.60;50.90
45409;DHT22;31162;51.076;3.784;2022-08-11T10:09:19;44.30;50.10
45409;DHT22;31162;51.076;3.784;2022-08-11T10:11:46;42.80;50.80
45409;DHT22;31162;51.076;3.784;2022-08-11T10:14:15;42.90;50.50
45409;DHT22;31162;51.076;3.784;2022-08-11T10:17:06;41.10;50.90
45409;DHT22;31162;51.076;3.784;2022-08-11T10:19:33;42.10;50.60
45409;DHT22;31162;51.076;3.784;2022-08-11T10:22:04;43.20;49.20
45409;DHT22;31162;51.076;3.784;2022-08-11T10:24:51;43.40;49.20
45409;DHT22;31162;51.076;3.784;2022-08-11T10:27:38;43.10;49.80
45409;DHT22;31162;51.076;3.784;2022-08-11T10:30:06;43.60;49.50
45409;DHT22;31162;51.076;3.784;2022-08-11T10:32:51;42.00;49.70
45409;DHT22;31162;51.076;3.784;2022-08-11T10:35:36;42.50;49.20
45409;DHT22;31162;51.076;3.784;2022-08-11T10:38:03;43.10;49.40
45409;DHT22;31162;51.076;3.784;2022-08-11T10:40:29;43.50;49.10
45409;DHT22;31162;51.076;3.784;2022-08-11T10:42:58;44.40;48.60
45409;DHT22;31162;51.076;3.784;2022-08-11T10:45:39;45.50;47.80
45409;DHT22;31162;51.076;3.784;2022-08-11T10:48:34;45.00;48.10
45409;DHT22;31162;51.076;3.784;2022-08-11T10:51:01;45.70;48.80
45409;DHT22;31162;51.076;3.784;2022-08-11T10:53:47;46.70;47.30
45409;DHT22;31162;51.076;3.784;2022-08-11T10:56:34;46.10;47.40
45409;DHT22;31162;51.076;3.784;2022-08-11T10:59:19;45.40;47.50
45409;DHT22;31162;51.076;3.784;2022-08-11T11:01:46;45.00;46.90
45409;DHT22;31162;51.076;3.784;2022-08-11T11:04:17;43.40;47.50
45409;DHT22;31162;51.076;3.784;2022-08-11T11:07:02;41.90;48.30
45409;DHT22;31162;51.076;3.784;2022-08-11T11:09:41;40.40;49.00
45409;DHT22;31162;51.076;3.784;2022-08-11T11:15:13;40.00;49.60
45409;DHT22;31162;51.076;3.784;2022-08-11T11:18:10;41.10;48.90
45409;DHT22;31162;51.076;3.784;2022-08-11T11:20:45;42.30;49.20
45409;DHT22;31162;51.076;3.784;2022-08-11T11:29:06;41.90;48.00
45409;DHT22;31162;51.076;3.784;2022-08-11T11:34:32;38.60;50.20
45409;DHT22;31162;51.076;3.784;2022-08-11T11:37:02;38.10;50.40
45409;DHT22;31162;51.076;3.784;2022-08-11T11:39:30;38.00;51.10
45409;DHT22;31162;51.076;3.784;2022-08-11T11:42:03;39.60;50.30
45409;DHT22;31162;51.076;3.784;2022-08-11T11:44:29;39.20;50.60
45409;DHT22;31162;51.076;3.784;2022-08-11T11:46:56;39.10;50.50
45409;DHT22;31162;51.076;3.784;2022-08-11T11:49:25;40.40;50.10
45409;DHT22;31162;51.076;3.784;2022-08-11T11:51:52;39.70;50.30
45409;DHT22;31162;51.076;3.784;2022-08-11T11:54:28;38.40;51.00
45409;DHT22;31162;51.076;3.784;2022-08-11T11:56:56;39.00;51.00
45409;DHT22;31162;51.076;3.784;2022-08-11T11:59:25;39.40;50.40
45409;DHT22;31162;51.076;3.784;2022-08-11T12:02:13;38.90;50.20
45409;DHT22;31162;51.076;3.784;2022-08-11T12:04:41;39.40;50.90
45409;DHT22;31162;51.076;3.784;2022-08-11T12:07:09;39.80;49.40
45409;DHT22;31162;51.076;3.784;2022-08-11T12:09:54;39.70;49.50
45409;DHT22;31162;51.076;3.784;2022-08-11T12:12:21;39.30;50.30
45409;DHT22;31162;51.076;3.784;2022-08-11T12:15:06;39.40;50.30
45409;DHT22;31162;51.076;3.784;2022-08-11T12:17:34;40.10;49.10
45409;DHT22;31162;51.076;3.784;2022-08-11T12:20:02;40.10;49.50
45409;DHT22;31162;51.076;3.784;2022-08-11T12:22:29;39.30;50.40
45409;DHT22;31162;51.076;3.784;2022-08-11T12:25:14;37.10;51.80
45409;DHT22;31162;51.076;3.784;2022-08-11T12:27:58;36.10;52.90
45409;DHT22;31162;51.076;3.784;2022-08-11T12:30:24;35.10;53.90
45409;DHT22;31162;51.076;3.784;2022-08-11T12:32:50;34.90;53.90
45409;DHT22;31162;51.076;3.784;2022-08-11T12:35:16;35.00;53.80
45409;DHT22;31162;51.076;3.784;2022-08-11T12:37:44;34.00;53.30
45409;DHT22;31162;51.076;3.784;2022-08-11T12:40:14;33.50;54.10
45409;DHT22;31162;51.076;3.784;2022-08-11T12:43:02;32.80;54.70
45409;DHT22;31162;51.076;3.784;2022-08-11T12:45:49;32.80;54.40
45409;DHT22;31162;51.076;3.784;2022-08-11T12:48:20;32.70;54.80
45409;DHT22;31162;51.076;3.784;2022-08-11T12:51:18;32.70;54.80
45409;DHT22;31162;51.076;3.784;2022-08-11T12:54:10;32.70;55.00
45409;DHT22;31162;51.076;3.784;2022-08-11T12:56:41;32.80;54.30
45409;DHT22;31162;51.076;3.784;2022-08-11T12:59:27;32.70;54.90
45409;DHT22;31162;51.076;3.784;2022-08-11T13:02:15;33.40;55.30
45409;DHT22;31162;51.076;3.784;2022-08-11T13:05:04;33.80;54.30
45409;DHT22;31162;51.076;3.784;2022-08-11T13:07:31;33.50;54.30
45409;DHT22;31162;51.076;3.784;2022-08-11T13:10:00;33.30;54.30
45409;DHT22;31162;51.076;3.784;2022-08-11T13:12:26;33.40;54.00
45409;DHT22;31162;51.076;3.784;2022-08-11T13:15:15;33.30;54.50
45409;DHT22;31162;51.076;3.784;2022-08-11T13:17:44;33.20;54.80
45409;DHT22;31162;51.076;3.784;2022-08-11T13:20:16;33.50;53.70
45409;DHT22;31162;51.076;3.784;2022-08-11T13:22:47;33.70;53.80
45409;DHT22;31162;51.076;3.784;2022-08-11T13:25:16;33.60;54.20
45409;DHT22;31162;51.076;3.784;2022-08-11T13:27:43;33.80;54.30
45409;DHT22;31162;51.076;3.784;2022-08-11T13:30:10;34.30;53.20
45409;DHT22;31162;51.076;3.784;2022-08-11T13:32:56;34.40;53.40
45409;DHT22;31162;51.076;3.784;2022-08-11T13:35:22;34.00;53.50
45409;DHT22;31162;51.076;3.784;2022-08-11T13:37:49;33.90;53.60
45409;DHT22;31162;51.076;3.784;2022-08-11T13:40:17;33.80;53.80
45409;DHT22;31162;51.076;3.784;2022-08-11T13:42:44;33.50;53.90
45409;DHT22;31162;51.076;3.784;2022-08-11T13:45:11;33.50;53.10
45409;DHT22;31162;51.076;3.784;2022-08-11T13:47:38;33.20;53.90
45409;DHT22;31162;51.076;3.784;2022-08-11T13:50:06;33.50;54.50
45409;DHT22;31162;51.076;3.784;2022-08-11T13:52:33;33.80;53.90
45409;DHT22;31162;51.076;3.784;2022-08-11T13:55:01;33.70;53.70
45409;DHT22;31162;51.076;3.784;2022-08-11T13:57:30;33.90;54.20
45409;DHT22;31162;51.076;3.784;2022-08-11T13:59:58;34.20;53.70
45409;DHT22;31162;51.076;3.784;2022-08-11T14:02:35;34.40;53.40
45409;DHT22;31162;51.076;3.784;2022-08-11T14:05:17;34.60;52.80
45409;DHT22;31162;51.076;3.784;2022-08-11T14:07:51;34.40;52.10
45409;DHT22;31162;51.076;3.784;2022-08-11T14:10:20;34.10;52.80
45409;DHT22;31162;51.076;3.784;2022-08-11T14:12:54;34.00;53.40
45409;DHT22;31162;51.076;3.784;2022-08-11T14:15:41;34.20;53.50
45409;DHT22;31162;51.076;3.784;2022-08-11T14:18:32;34.30;52.70
45409;DHT22;31162;51.076;3.784;2022-08-11T14:21:00;34.20;52.40
45409;DHT22;31162;51.076;3.784;2022-08-11T14:23:47;34.30;53.10
45409;DHT22;31162;51.076;3.784;2022-08-11T14:26:16;33.90;52.60
45409;DHT22;31162;51.076;3.784;2022-08-11T14:28:49;33.60;53.50
45409;DHT22;31162;51.076;3.784;2022-08-11T14:31:20;33.70;53.90
45409;DHT22;31162;51.076;3.784;2022-08-11T14:33:47;33.40;54.10
45409;DHT22;31162;51.076;3.784;2022-08-11T14:36:14;33.20;54.00
45409;DHT22;31162;51.076;3.784;2022-08-11T14:38:41;33.50;53.40
45409;DHT22;31162;51.076;3.784;2022-08-11T14:41:07;33.70;53.40
45409;DHT22;31162;51.076;3.784;2022-08-11T14:43:54;33.70;53.80
45409;DHT22;31162;51.076;3.784;2022-08-11T14:46:40;33.60;54.00
45409;DHT22;31162;51.076;3.784;2022-08-11T14:49:27;33.60;54.20
45409;DHT22;31162;51.076;3.784;2022-08-11T14:51:55;33.90;54.10
45409;DHT22;31162;51.076;3.784;2022-08-11T14:54:27;33.80;53.20
45409;DHT22;31162;51.076;3.784;2022-08-11T14:57:12;33.50;54.10
45409;DHT22;31162;51.076;3.784;2022-08-11T14:59:38;33.50;53.60
45409;DHT22;31162;51.076;3.784;2022-08-11T15:02:04;33.50;52.70
45409;DHT22;31162;51.076;3.784;2022-08-11T15:04:50;33.50;53.70
45409;DHT22;31162;51.076;3.784;2022-08-11T15:07:16;33.40;54.30
45409;DHT22;31162;51.076;3.784;2022-08-11T15:09:43;33.40;54.40
45409;DHT22;31162;51.076;3.784;2022-08-11T15:12:10;33.50;53.50
45409;DHT22;31162;51.076;3.784;2022-08-11T15:14:46;33.40;53.50
45409;DHT22;31162;51.076;3.784;2022-08-11T15:17:32;33.30;54.30
45409;DHT22;31162;51.076;3.784;2022-08-11T15:20:05;33.60;53.50
45409;DHT22;31162;51.076;3.784;2022-08-11T15:22:50;33.60;54.10
45409;DHT22;31162;51.076;3.784;2022-08-11T15:25:42;33.70;53.00
45409;DHT22;31162;51.076;3.784;2022-08-11T15:28:10;33.70;53.00
45409;DHT22;31162;51.076;3.784;2022-08-11T15:30:56;33.50;53.00
45409;DHT22;31162;51.076;3.784;2022-08-11T15:33:43;33.30;53.30
45409;DHT22;31162;51.076;3.784;2022-08-11T15:36:29;33.10;53.50
45409;DHT22;31162;51.076;3.784;2022-08-11T15:39:33;33.40;53.10
45409;DHT22;31162;51.076;3.784;2022-08-11T15:42:03;33.30;53.00
45409;DHT22;31162;51.076;3.784;2022-08-11T15:44:59;33.00;53.50
45409;DHT22;31162;51.076;3.784;2022-08-11T15:47:54;33.00;53.80
45409;DHT22;31162;51.076;3.784;2022-08-11T15:50:27;33.30;53.30
45409;DHT22;31162;51.076;3.784;2022-08-11T15:53:06;33.60;53.20
45409;DHT22;31162;51.076;3.784;2022-08-11T15:55:34;33.60;53.40
45409;DHT22;31162;51.076;3.784;2022-08-11T15:58:03;33.60;53.40
45409;DHT22;31162;51.076;3.784;2022-08-11T16:00:50;33.60;52.50
45409;DHT22;31162;51.076;3.784;2022-08-11T16:03:50;33.50;52.40
45409;DHT22;31162;51.076;3.784;2022-08-11T16:06:44;33.30;52.90
45409;DHT22;31162;51.076;3.784;2022-08-11T16:09:12;33.60;53.40
45409;DHT22;31162;51.076;3.784;2022-08-11T16:11:40;33.40;53.10
45409;DHT22;31162;51.076;3.784;2022-08-11T16:14:07;33.30;53.60
45409;DHT22;31162;51.076;3.784;2022-08-11T16:16:55;33.40;53.60
45409;DHT22;31162;51.076;3.784;2022-08-11T16:19:24;33.40;53.20
45409;DHT22;31162;51.076;3.784;2022-08-11T16:21:52;33.10;53.30
45409;DHT22;31162;51.076;3.784;2022-08-11T16:24:21;33.10;53.80
45409;DHT22;31162;51.076;3.784;2022-08-11T16:26:48;33.30;53.10
45409;DHT22;31162;51.076;3.784;2022-08-11T16:29:16;33.30;53.40
45409;DHT22;31162;51.076;3.784;2022-08-11T16:31:43;33.30;52.50
45409;DHT22;31162;51.076;3.784;2022-08-11T16:34:30;33.30;52.90
45409;DHT22;31162;51.076;3.784;2022-08-11T16:37:17;33.40;53.10
45409;DHT22;31162;51.076;3.784;2022-08-11T16:40:02;33.40;52.80
45409;DHT22;31162;51.076;3.784;2022-08-11T16:42:28;33.40;53.00
45409;DHT22;31162;51.076;3.784;2022-08-11T16:45:12;33.50;53.40
45409;DHT22;31162;51.076;3.784;2022-08-11T16:47:57;33.60;53.30
45409;DHT22;31162;51.076;3.784;2022-08-11T16:50:24;33.60;53.00
45409;DHT22;31162;51.076;3.784;2022-08-11T16:52:50;33.40;53.90
45409;DHT22;31162;51.076;3.784;2022-08-11T16:55:16;33.50;53.20
45409;DHT22;31162;51.076;3.784;2022-08-11T16:57:42;33.50;53.80
45409;DHT22;31162;51.076;3.784;2022-08-11T17:00:30;33.50;53.50
45409;DHT22;31162;51.076;3.784;2022-08-11T17:02:59;33.40;53.70
45409;DHT22;31162;51.076;3.784;2022-08-11T17:05:50;33.30;53.80
45409;DHT22;31162;51.076;3.784;2022-08-11T17:08:41;33.00;53.60
45409;DHT22;31162;51.076;3.784;2022-08-11T17:11:29;32.80;54.00
45409;DHT22;31162;51.076;3.784;2022-08-11T17:14:21;32.70;54.10
45409;DHT22;31162;51.076;3.784;2022-08-11T17:16:50;32.70;53.90
45409;DHT22;31162;51.076;3.784;2022-08-11T17:19:21;32.80;54.30
45409;DHT22;31162;51.076;3.784;2022-08-11T17:21:49;32.90;54.10
45409;DHT22;31162;51.076;3.784;2022-08-11T17:24:45;32.70;53.90
45409;DHT22;31162;51.076;3.784;2022-08-11T17:27:14;32.50;54.70
45409;DHT22;31162;51.076;3.784;2022-08-11T17:29:52;32.30;54.90
45409;DHT22;31162;51.076;3.784;2022-08-11T17:32:34;32.30;54.80
45409;DHT22;31162;51.076;3.784;2022-08-11T17:35:21;31.90;55.40
45409;DHT22;31162;51.076;3.784;2022-08-11T17:38:01;31.90;55.40
45409;DHT22;31162;51.076;3.784;2022-08-11T17:40:29;31.60;55.00
45409;DHT22;31162;51.076;3.784;2022-08-11T17:42:56;31.60;55.20
45409;DHT22;31162;51.076;3.784;2022-08-11T17:45:42;31.80;55.10
45409;DHT22;31162;51.076;3.784;2022-08-11T17:48:40;31.70;54.90
45409;DHT22;31162;51.076;3.784;2022-08-11T17:51:12;31.60;55.00
45409;DHT22;31162;51.076;3.784;2022-08-11T17:53:59;31.50;55.20
45409;DHT22;31162;51.076;3.784;2022-08-11T17:56:43;31.40;54.80
45409;DHT22;31162;51.076;3.784;2022-08-11T17:59:29;31.30;55.60
45409;DHT22;31162;51.076;3.784;2022-08-11T18:02:39;31.30;55.60
45409;DHT22;31162;51.076;3.784;2022-08-11T18:05:24;31.40;55.80
45409;DHT22;31162;51.076;3.784;2022-08-11T18:07:53;31.40;55.90
45409;DHT22;31162;51.076;3.784;2022-08-11T18:10:38;31.30;56.20
45409;DHT22;31162;51.076;3.784;2022-08-11T18:13:24;31.30;56.60
45409;DHT22;31162;51.076;3.784;2022-08-11T18:16:10;31.20;56.40
45409;DHT22;31162;51.076;3.784;2022-08-11T18:18:55;31.10;56.30
45409;DHT22;31162;51.076;3.784;2022-08-11T18:21:43;31.10;56.30
45409;DHT22;31162;51.076;3.784;2022-08-11T18:24:32;31.00;56.70
45409;DHT22;31162;51.076;3.784;2022-08-11T18:27:19;30.80;57.10
45409;DHT22;31162;51.076;3.784;2022-08-11T18:30:04;30.70;57.30
45409;DHT22;31162;51.076;3.784;2022-08-11T18:32:50;30.60;58.00
45409;DHT22;31162;51.076;3.784;2022-08-11T18:35:38;30.60;57.60
45409;DHT22;31162;51.076;3.784;2022-08-11T18:38:26;30.60;58.00
45409;DHT22;31162;51.076;3.784;2022-08-11T18:41:13;30.40;57.90
45409;DHT22;31162;51.076;3.784;2022-08-11T18:43:59;30.20;58.30
45409;DHT22;31162;51.076;3.784;2022-08-11T18:46:46;30.20;58.30
45409;DHT22;31162;51.076;3.784;2022-08-11T18:49:35;30.10;58.60
45409;DHT22;31162;51.076;3.784;2022-08-11T18:52:22;30.00;58.50
45409;DHT22;31162;51.076;3.784;2022-08-11T18:55:10;30.00;58.60
45409;DHT22;31162;51.076;3.784;2022-08-11T18:57:59;29.90;58.90
45409;DHT22;31162;51.076;3.784;2022-08-11T19:00:45;29.80;59.10
45409;DHT22;31162;51.076;3.784;2022-08-11T19:03:30;29.70;59.10
45409;DHT22;31162;51.076;3.784;2022-08-11T19:06:17;29.50;59.40
45409;DHT22;31162;51.076;3.784;2022-08-11T19:09:06;29.50;59.50
45409;DHT22;31162;51.076;3.784;2022-08-11T19:11:51;29.30;59.70
45409;DHT22;31162;51.076;3.784;2022-08-11T19:14:37;29.20;60.00
45409;DHT22;31162;51.076;3.784;2022-08-11T19:17:23;29.10;59.90
45409;DHT22;31162;51.076;3.784;2022-08-11T19:20:19;29.00;60.30
45409;DHT22;31162;51.076;3.784;2022-08-11T19:23:06;28.80;60.40
45409;DHT22;31162;51.076;3.784;2022-08-11T19:25:52;28.70;60.70
45409;DHT22;31162;51.076;3.784;2022-08-11T19:28:38;28.60;60.80
45409;DHT22;31162;51.076;3.784;2022-08-11T19:31:24;28.50;61.00
45409;DHT22;31162;51.076;3.784;2022-08-11T19:34:09;28.40;61.30
45409;DHT22;31162;51.076;3.784;2022-08-11T19:36:54;28.30;61.80
45409;DHT22;31162;51.076;3.784;2022-08-11T19:39:40;28.20;61.70